Time;durP1;ratioP1;P1;durP2;ratioP2;P2;SDS_P1;SDS_P2;PMS_P1;PMS_P2;Temp;Humidity;BMP_temperature;BMP_pressure;BME280_temperature;BME280_humidity;BME280_pressure;Samples;Min_cycle;Max_cycle;Signal;HPM_P1;HPM_P2
2022/08/08 00:00:13;;;;;;;11.32;7.50;;;13.70;99.90;;;;;;5063253;28;20052;-70
2022/08/08 00:02:57;;;;;;;7.85;7.07;;;13.70;99.90;;;;;;5060451;28;20033;-70
2022/08/08 00:05:33;;;;;;;8.20;7.40;;;13.60;99.90;;;;;;5048335;28;20028;-70
2022/08/08 00:08:40;;;;;;;8.35;6.72;;;13.60;99.90;;;;;;5062075;28;20048;-70
2022/08/08 00:11:32;;;;;;;7.57;6.78;;;13.50;99.90;;;;;;5061710;28;20159;-70
2022/08/08 00:14:17;;;;;;;8.75;6.57;;;13.50;99.90;;;;;;5057472;28;20093;-70
2022/08/08 00:17:10;;;;;;;7.82;7.03;;;13.50;99.90;;;;;;5060580;28;20044;-70
2022/08/08 00:19:45;;;;;;;9.60;7.45;;;13.50;99.90;;;;;;5060337;28;20044;-70
2022/08/08 00:22:41;;;;;;;9.90;7.00;;;13.40;99.90;;;;;;5061557;28;20064;-70
2022/08/08 00:25:30;;;;;;;7.72;6.57;;;13.40;99.90;;;;;;5063472;28;20231;-70
2022/08/08 00:27:59;;;;;;;7.22;6.53;;;13.40;99.90;;;;;;5060579;28;20053;-70
2022/08/08 00:30:31;;;;;;;8.85;7.22;;;13.30;99.90;;;;;;5060852;28;20041;-70
2022/08/08 00:33:11;;;;;;;10.43;7.55;;;13.30;99.90;;;;;;5061601;28;20102;-70
2022/08/08 00:35:56;;;;;;;7.55;6.85;;;13.30;99.90;;;;;;5062982;28;20048;-70
2022/08/08 00:38:28;;;;;;;;;;;13.30;99.90;;;;;;5045391;28;20057;-70
2022/08/08 00:41:31;;;;;;;7.00;6.32;;;13.20;99.90;;;;;;5061585;28;19924;-70
2022/08/08 00:44:25;;;;;;;8.20;7.18;;;13.20;99.90;;;;;;5061098;28;20614;-70
2022/08/08 00:47:40;;;;;;;7.75;6.95;;;13.10;99.90;;;;;;5058433;28;20090;-70
2022/08/08 00:50:36;;;;;;;10.02;6.95;;;13.10;99.90;;;;;;5036367;28;20064;-70
2022/08/08 00:53:24;;;;;;;7.97;7.18;;;13.10;99.90;;;;;;5030951;28;20132;-70
2022/08/08 00:56:18;;;;;;;10.73;7.70;;;13.00;99.90;;;;;;5060921;28;20053;-70
2022/08/08 00:58:55;;;;;;;7.90;7.03;;;13.00;99.90;;;;;;5056595;28;20196;-70
2022/08/08 01:01:41;;;;;;;8.98;7.40;;;13.00;99.90;;;;;;5060175;28;20044;-70
2022/08/08 01:04:41;;;;;;;7.85;7.10;;;12.90;99.90;;;;;;5053849;28;20513;-70
2022/08/08 01:07:10;;;;;;;12.02;7.47;;;12.90;99.90;;;;;;5038240;28;20072;-70
2022/08/08 01:10:11;;;;;;;7.97;6.50;;;12.80;99.90;;;;;;5059337;28;20139;-70
2022/08/08 01:12:58;;;;;;;7.63;6.95;;;12.80;99.90;;;;;;5061246;28;20028;-70
2022/08/08 01:15:51;;;;;;;7.28;6.57;;;12.70;99.90;;;;;;5060804;28;20036;-70
2022/08/08 01:18:55;;;;;;;8.40;6.97;;;12.70;99.90;;;;;;5058418;28;20115;-70
2022/08/08 01:21:36;;;;;;;7.47;6.68;;;12.70;99.90;;;;;;5063943;28;20032;-70
2022/08/08 01:24:21;;;;;;;7.38;5.85;;;12.60;99.90;;;;;;5056733;28;20041;-70
2022/08/08 01:27:06;;;;;;;7.63;6.10;;;12.60;99.90;;;;;;5062923;28;20048;-70
2022/08/08 01:30:10;;;;;;;6.30;5.70;;;12.60;99.90;;;;;;5058327;28;20062;-70
2022/08/08 01:32:42;;;;;;;5.85;4.70;;;12.60;99.90;;;;;;5056043;28;20093;-70
2022/08/08 01:35:29;;;;;;;5.70;5.13;;;12.50;99.90;;;;;;5059134;28;20508;-70
2022/08/08 01:38:22;;;;;;;5.50;5.00;;;12.50;99.90;;;;;;5062537;28;20044;-69
2022/08/08 01:41:08;;;;;;;5.22;4.72;;;12.50;99.90;;;;;;5058977;28;20169;-70
2022/08/08 01:43:54;;;;;;;4.97;4.50;;;12.50;99.90;;;;;;5057911;28;20044;-70
2022/08/08 01:46:26;;;;;;;4.90;4.40;;;12.50;99.90;;;;;;5060115;28;20109;-70
2022/08/08 01:49:17;;;;;;;4.50;4.13;;;12.50;99.90;;;;;;5059795;28;20044;-69
2022/08/08 01:52:27;;;;;;;5.43;4.60;;;12.50;99.90;;;;;;5054389;28;20063;-70
2022/08/08 01:54:56;;;;;;;5.03;4.53;;;12.40;99.90;;;;;;5053113;28;20102;-70
2022/08/08 01:57:59;;;;;;;5.60;4.65;;;12.40;99.90;;;;;;5043942;28;20764;-70
2022/08/08 02:00:34;;;;;;;5.47;4.95;;;12.40;99.90;;;;;;5058192;28;20050;-70
2022/08/08 02:03:24;;;;;;;6.18;5.53;;;12.40;99.90;;;;;;5061177;28;20055;-70
2022/08/08 02:05:50;;;;;;;6.35;4.72;;;12.40;99.90;;;;;;5062462;28;20048;-70
2022/08/08 02:08:32;;;;;;;5.53;5.03;;;12.40;99.90;;;;;;5058885;28;20499;-70
2022/08/08 02:11:12;;;;;;;4.72;4.32;;;12.40;99.90;;;;;;5059151;28;20501;-70
2022/08/08 02:13:45;;;;;;;5.22;4.72;;;12.40;99.90;;;;;;5059327;28;20718;-70
2022/08/08 02:16:16;;;;;;;4.57;4.13;;;12.40;99.90;;;;;;5055547;28;20044;-70
2022/08/08 02:18:51;;;;;;;5.32;4.65;;;12.40;99.90;;;;;;5060502;28;20059;-70
2022/08/08 02:24:19;;;;;;;5.78;5.18;;;12.40;99.90;;;;;;5061681;28;20384;-70
2022/08/08 02:27:02;;;;;;;5.30;4.80;;;12.40;99.90;;;;;;5059090;28;20060;-70
2022/08/08 02:29:59;;;;;;;5.32;4.82;;;12.40;99.90;;;;;;5055483;28;20049;-70
2022/08/08 02:32:59;;;;;;;5.05;4.63;;;12.40;99.90;;;;;;5061481;28;20037;-70
2022/08/08 02:35:40;;;;;;;5.07;4.65;;;12.30;99.90;;;;;;5055860;28;20084;-70
2022/08/08 02:38:33;;;;;;;5.57;5.07;;;12.30;99.90;;;;;;5053425;28;20056;-70
2022/08/08 02:41:30;;;;;;;5.30;4.78;;;12.30;99.90;;;;;;5060348;28;20086;-69
2022/08/08 02:44:33;;;;;;;4.68;4.28;;;12.20;99.90;;;;;;5056469;28;20400;-69
2022/08/08 02:47:26;;;;;;;3.78;3.42;;;12.20;99.90;;;;;;5063375;28;20044;-69
2022/08/08 02:50:12;;;;;;;3.35;3.05;;;12.20;99.90;;;;;;5077452;28;20041;-69
2022/08/08 02:52:46;;;;;;;3.47;3.17;;;12.10;99.90;;;;;;5066788;28;20052;-70
2022/08/08 02:56:03;;;;;;;3.30;3.03;;;12.10;99.90;;;;;;5064980;28;20113;-70
2022/08/08 02:59:06;;;;;;;4.60;3.05;;;12.10;99.90;;;;;;5066336;28;20059;-69
2022/08/08 03:02:04;;;;;;;3.88;3.20;;;12.00;99.90;;;;;;5059081;28;20176;-69
2022/08/08 03:04:47;;;;;;;5.70;3.22;;;12.00;99.90;;;;;;5060472;28;20127;-69
2022/08/08 03:07:44;;;;;;;5.30;3.50;;;12.00;99.90;;;;;;5065553;28;20063;-69
2022/08/08 03:10:25;;;;;;;3.47;3.17;;;12.10;99.90;;;;;;5057491;28;20049;-69
2022/08/08 03:13:15;;;;;;;3.13;2.92;;;12.00;99.90;;;;;;5065233;28;20033;-69
2022/08/08 03:15:41;;;;;;;3.50;3.20;;;12.00;99.90;;;;;;5049172;28;20099;-70
2022/08/08 03:18:39;;;;;;;4.82;3.45;;;12.00;99.90;;;;;;5062631;28;20036;-70
2022/08/08 03:21:04;;;;;;;3.53;3.20;;;12.00;99.90;;;;;;5027444;28;20043;-70
2022/08/08 03:23:30;;;;;;;3.90;2.90;;;12.00;99.90;;;;;;5060101;28;20040;-70
2022/08/08 03:25:57;;;;;;;3.08;2.88;;;11.90;99.90;;;;;;5063068;28;20078;-71
2022/08/08 03:28:40;;;;;;;3.15;2.92;;;12.00;99.90;;;;;;5058531;28;20215;-70
2022/08/08 03:33:17;;;;;;;3.67;2.92;;;12.00;99.90;;;;;;5059426;28;20044;-68
2022/08/08 03:33:52;;;;;;;2.65;2.45;;;11.90;99.90;;;;;;5064705;28;20136;-68
2022/08/08 03:36:18;;;;;;;4.78;3.40;;;12.00;99.90;;;;;;5061724;28;20051;-68
2022/08/08 03:38:51;;;;;;;3.20;2.90;;;12.00;99.90;;;;;;5063517;28;20401;-68
2022/08/08 03:41:18;;;;;;;3.47;2.60;;;11.90;99.90;;;;;;5061361;28;20047;-68
2022/08/08 03:43:56;;;;;;;2.95;2.70;;;11.90;99.90;;;;;;5062129;28;20515;-68
2022/08/08 03:46:22;;;;;;;2.78;2.58;;;11.90;99.90;;;;;;5062733;28;20271;-68
2022/08/08 03:48:59;;;;;;;2.92;2.63;;;11.90;99.90;;;;;;5058876;28;20068;-68
2022/08/08 03:51:25;;;;;;;4.90;3.05;;;11.90;99.90;;;;;;5062344;28;20630;-68
2022/08/08 03:53:51;;;;;;;3.90;3.20;;;11.90;99.90;;;;;;5059615;28;20040;-67
2022/08/08 03:56:21;;;;;;;3.63;3.33;;;11.90;99.90;;;;;;5057901;28;20053;-68
2022/08/08 03:58:52;;;;;;;4.97;3.10;;;11.90;99.90;;;;;;5062521;28;20036;-68
2022/08/08 04:01:19;;;;;;;2.72;2.53;;;11.80;99.90;;;;;;5044220;28;20045;-67
2022/08/08 04:03:47;;;;;;;3.00;2.60;;;11.90;99.90;;;;;;5059964;28;20044;-68
2022/08/08 04:06:14;;;;;;;3.50;3.20;;;11.80;99.90;;;;;;5055542;28;20036;-68
2022/08/08 04:08:40;;;;;;;4.15;2.95;;;11.80;99.90;;;;;;5063245;28;20083;-68
2022/08/08 04:11:08;;;;;;;2.38;2.17;;;11.80;99.90;;;;;;5063465;28;20040;-67
2022/08/08 04:13:34;;;;;;;1.65;1.55;;;11.80;99.90;;;;;;5056894;28;20090;-70
2022/08/08 04:15:59;;;;;;;2.00;1.60;;;11.80;99.90;;;;;;5058421;28;20041;-70
2022/08/08 04:18:25;;;;;;;1.80;1.70;;;11.80;99.90;;;;;;5063603;28;20055;-70
2022/08/08 04:20:51;;;;;;;2.13;1.92;;;11.80;99.90;;;;;;5056126;28;20148;-68
2022/08/08 04:23:17;;;;;;;2.20;2.00;;;11.80;99.90;;;;;;5058802;28;20044;-69
2022/08/08 04:25:43;;;;;;;2.30;2.10;;;11.70;99.90;;;;;;5061430;28;20383;-69
2022/08/08 04:28:09;;;;;;;3.22;2.20;;;11.80;99.90;;;;;;5063438;28;20037;-69
2022/08/08 04:30:35;;;;;;;3.15;2.85;;;11.80;99.90;;;;;;5060458;28;20033;-68
2022/08/08 04:33:01;;;;;;;2.58;2.15;;;11.80;99.90;;;;;;5058423;28;20072;-69
2022/08/08 04:35:27;;;;;;;4.55;2.92;;;11.70;99.90;;;;;;5045822;28;21007;-69
2022/08/08 04:37:53;;;;;;;2.88;2.65;;;11.80;99.90;;;;;;5064432;28;20491;-70
2022/08/08 04:40:19;;;;;;;3.97;2.60;;;11.80;99.90;;;;;;5063105;28;20600;-70
2022/08/08 04:42:46;;;;;;;3.10;2.80;;;11.80;99.90;;;;;;5062016;28;20612;-70
2022/08/08 04:45:11;;;;;;;2.90;2.55;;;11.80;99.90;;;;;;5058157;28;20040;-70
2022/08/08 04:47:37;;;;;;;2.85;2.55;;;11.90;99.90;;;;;;5060619;28;20403;-70
2022/08/08 04:50:03;;;;;;;3.20;2.90;;;11.90;99.90;;;;;;5061661;28;20052;-70
2022/08/08 04:52:29;;;;;;;3.33;3.03;;;12.00;99.90;;;;;;5061509;28;20607;-70
2022/08/08 04:54:54;;;;;;;2.95;2.75;;;12.00;99.90;;;;;;5062707;28;20059;-70
2022/08/08 04:57:20;;;;;;;3.63;3.03;;;12.10;99.90;;;;;;5045812;28;20041;-70
2022/08/08 04:59:46;;;;;;;4.03;3.13;;;12.10;99.90;;;;;;5059600;28;20044;-70
2022/08/08 05:02:12;;;;;;;3.60;3.00;;;12.20;99.90;;;;;;5059489;28;20349;-70
2022/08/08 05:04:38;;;;;;;3.83;3.45;;;12.20;99.90;;;;;;5058954;28;20039;-70
2022/08/08 05:07:04;;;;;;;3.50;3.20;;;12.30;99.90;;;;;;5077489;28;20059;-70
2022/08/08 05:09:30;;;;;;;4.68;4.20;;;12.30;99.90;;;;;;5061487;28;20040;-70
2022/08/08 05:11:55;;;;;;;4.18;3.22;;;12.50;99.90;;;;;;5059617;28;20029;-70
2022/08/08 05:14:21;;;;;;;4.50;3.90;;;12.60;99.90;;;;;;5060809;28;20060;-70
2022/08/08 05:16:47;;;;;;;4.03;3.60;;;12.70;99.90;;;;;;5060188;28;20045;-68
2022/08/08 05:19:13;;;;;;;5.18;4.60;;;12.80;99.90;;;;;;5059568;28;20056;-68
2022/08/08 05:21:42;;;;;;;5.90;4.43;;;12.90;99.90;;;;;;5061416;28;20052;-68
2022/08/08 05:24:09;;;;;;;6.05;4.80;;;13.00;99.90;;;;;;5059599;28;20563;-68
2022/08/08 05:26:36;;;;;;;4.88;4.38;;;13.10;99.90;;;;;;5059378;28;20063;-68
2022/08/08 05:29:07;;;;;;;7.07;4.95;;;13.20;99.90;;;;;;5056549;28;20056;-68
2022/08/08 05:31:36;;;;;;;4.97;4.53;;;13.20;99.90;;;;;;5059903;28;20036;-68
2022/08/08 05:34:09;;;;;;;4.68;4.22;;;13.30;99.90;;;;;;5055017;28;20045;-68
2022/08/08 05:36:37;;;;;;;9.37;4.57;;;13.40;99.90;;;;;;5060361;28;20074;-68
2022/08/08 05:39:05;;;;;;;7.75;4.72;;;13.50;99.90;;;;;;5060303;28;20094;-68
2022/08/08 05:41:34;;;;;;;5.20;4.50;;;13.60;99.90;;;;;;5058804;28;20056;-68
2022/08/08 05:44:09;;;;;;;5.57;4.60;;;13.80;99.90;;;;;;5058750;28;20162;-69
2022/08/08 05:46:36;;;;;;;5.40;4.75;;;13.90;99.90;;;;;;5062918;28;20040;-68
2022/08/08 05:49:02;;;;;;;6.35;5.05;;;14.10;99.90;;;;;;5058599;28;20453;-68
2022/08/08 05:51:29;;;;;;;6.15;5.18;;;14.20;99.90;;;;;;5055119;28;20052;-68
2022/08/08 05:53:55;;;;;;;8.32;5.65;;;14.40;99.90;;;;;;5058542;28;20381;-68
2022/08/08 05:56:22;;;;;;;7.30;5.22;;;14.60;99.90;;;;;;5056812;28;20093;-69
2022/08/08 05:58:56;;;;;;;8.23;4.63;;;14.80;99.90;;;;;;5058198;28;20123;-70
2022/08/08 06:01:22;;;;;;;5.63;4.75;;;14.90;99.90;;;;;;5062163;28;20493;-69
2022/08/08 06:03:50;;;;;;;8.75;5.40;;;15.00;99.90;;;;;;5058801;28;20041;-69
2022/08/08 06:06:17;;;;;;;6.60;4.65;;;15.10;99.90;;;;;;5060329;28;20062;-69
2022/08/08 06:08:54;;;;;;;6.55;4.63;;;15.20;99.90;;;;;;5047151;28;20053;-70
2022/08/08 06:11:21;;;;;;;6.82;4.63;;;15.40;99.90;;;;;;5044366;28;20048;-70
2022/08/08 06:13:47;;;;;;;9.07;4.82;;;15.50;99.90;;;;;;5057464;28;20080;-69
2022/08/08 06:16:14;;;;;;;6.43;4.18;;;15.60;99.90;;;;;;5042977;28;20105;-69
2022/08/08 06:18:41;;;;;;;7.35;5.20;;;15.80;99.90;;;;;;5058613;28;20187;-70
2022/08/08 06:21:08;;;;;;;9.23;4.43;;;15.90;99.90;;;;;;5058596;28;20084;-69
2022/08/08 06:23:34;;;;;;;7.95;4.28;;;16.10;99.90;;;;;;5065161;28;20051;-70
2022/08/08 06:26:05;;;;;;;6.97;4.00;;;16.20;99.90;;;;;;5059225;28;20447;-70
2022/08/08 06:29:09;;;;;;;8.68;4.38;;;16.30;99.90;;;;;;5065150;28;20579;-70
2022/08/08 06:31:37;;;;;;;7.32;3.92;;;16.40;99.90;;;;;;5060371;28;20048;-70
2022/08/08 06:34:25;;;;;;;9.43;4.47;;;16.50;99.90;;;;;;5062364;28;20040;-70
2022/08/08 06:36:54;;;;;;;7.80;4.43;;;16.70;99.90;;;;;;5059662;28;20040;-70
2022/08/08 06:39:21;;;;;;;5.57;4.20;;;16.80;99.90;;;;;;5047472;28;20052;-70
2022/08/08 06:42:01;;;;;;;9.75;3.95;;;16.90;99.90;;;;;;5059799;28;20032;-70
2022/08/08 06:44:27;;;;;;;8.43;4.43;;;17.00;99.90;;;;;;5043073;28;20041;-70
2022/08/08 06:46:55;;;;;;;8.90;4.22;;;17.10;99.90;;;;;;5039802;28;20548;-70
2022/08/08 06:49:21;;;;;;;8.15;4.10;;;17.30;99.90;;;;;;5044939;28;20053;-70
2022/08/08 06:51:47;;;;;;;7.70;3.83;;;17.50;99.90;;;;;;5055430;28;20056;-70
2022/08/08 06:54:13;;;;;;;5.60;3.55;;;17.60;99.90;;;;;;5061922;28;20063;-70
2022/08/08 06:56:38;;;;;;;5.80;3.90;;;17.80;99.90;;;;;;5059995;28;20086;-70
2022/08/08 06:59:05;;;;;;;9.32;3.47;;;17.90;99.90;;;;;;5057768;28;20056;-68
2022/08/08 07:01:39;;;;;;;6.90;3.60;;;18.00;99.90;;;;;;5056860;28;20254;-67
2022/08/08 07:04:10;;;;;;;;;;;18.20;99.90;;;;;;5055581;28;20057;-67
2022/08/08 07:06:40;;;;;;;7.75;2.97;;;18.30;99.90;;;;;;5053953;28;20374;-68
2022/08/08 07:09:13;;;;;;;8.02;3.15;;;18.40;99.90;;;;;;5058260;28;20063;-70
2022/08/08 07:11:45;;;;;;;6.17;2.43;;;18.50;99.90;;;;;;5065298;28;20040;-70
2022/08/08 07:14:16;;;;;;;5.78;2.92;;;18.70;99.90;;;;;;5060448;28;20047;-70
2022/08/08 07:17:18;;;;;;;6.30;2.97;;;18.70;99.90;;;;;;5048604;28;20045;-70
2022/08/08 07:20:06;;;;;;;7.75;2.25;;;18.90;99.90;;;;;;5046725;28;20480;-70
2022/08/08 07:23:03;;;;;;;6.80;2.55;;;19.10;99.90;;;;;;5058141;28;20044;-70
2022/08/08 07:25:31;;;;;;;7.78;1.88;;;19.30;99.90;;;;;;5058739;28;20052;-70
2022/08/08 07:28:08;;;;;;;6.38;1.30;;;19.50;99.90;;;;;;5052136;28;20048;-70
2022/08/08 07:30:34;;;;;;;6.82;1.20;;;19.50;99.90;;;;;;5065326;28;20040;-70
2022/08/08 07:33:00;;;;;;;5.28;1.05;;;19.60;99.90;;;;;;5055655;28;20041;-70
2022/08/08 07:35:30;;;;;;;5.03;1.50;;;19.90;99.90;;;;;;5046329;28;20450;-70
2022/08/08 07:37:57;;;;;;;6.53;1.13;;;20.00;99.90;;;;;;5047933;28;20041;-70
2022/08/08 07:40:27;;;;;;;7.05;1.40;;;20.00;99.90;;;;;;5064064;28;20117;-70
2022/08/08 07:42:53;;;;;;;7.65;1.25;;;20.10;99.90;;;;;;5064911;28;20052;-70
2022/08/08 07:45:20;;;;;;;6.78;1.10;;;20.30;99.90;;;;;;5061628;28;20493;-70
2022/08/08 07:47:46;;;;;;;4.35;1.08;;;20.60;99.90;;;;;;5057153;28;20206;-70
2022/08/08 07:50:12;;;;;;;5.10;1.00;;;20.80;99.90;;;;;;5051356;28;20099;-70
2022/08/08 07:52:43;;;;;;;5.15;1.20;;;20.80;99.90;;;;;;5052829;28;20199;-69
2022/08/08 07:55:09;;;;;;;6.32;1.38;;;20.80;99.90;;;;;;5060033;28;20088;-70
2022/08/08 07:58:03;;;;;;;4.50;1.13;;;20.90;99.90;;;;;;5057200;28;20072;-71
2022/08/08 08:00:48;;;;;;;;;;;21.00;99.90;;;;;;5061919;28;20048;-71
2022/08/08 08:03:46;;;;;;;6.15;1.27;;;21.10;99.90;;;;;;5064607;28;19924;-70
2022/08/08 08:06:13;;;;;;;3.72;0.88;;;21.20;99.90;;;;;;5061690;28;20052;-71
2022/08/08 08:08:41;;;;;;;5.40;1.10;;;21.30;99.90;;;;;;5066197;28;20449;-71
2022/08/08 08:11:12;;;;;;;3.97;0.70;;;21.40;99.90;;;;;;5065520;28;20049;-70
2022/08/08 08:14:01;;;;;;;3.50;0.65;;;21.60;99.90;;;;;;5047713;28;20039;-72
2022/08/08 08:16:34;;;;;;;4.60;0.93;;;21.70;99.90;;;;;;5065606;28;20147;-70
2022/08/08 08:19:03;;;;;;;8.23;1.33;;;21.80;99.90;;;;;;5062382;28;20052;-74
2022/08/08 08:21:38;;;;;;;4.65;0.77;;;22.00;99.90;;;;;;5062462;28;20652;-71
2022/08/08 08:24:05;;;;;;;5.18;0.90;;;22.60;99.90;;;;;;5060958;28;20125;-71
2022/08/08 08:26:31;;;;;;;4.63;1.00;;;23.00;99.90;;;;;;5058917;28;20128;-72
2022/08/08 08:28:57;;;;;;;5.05;0.85;;;23.30;99.80;;;;;;5056602;28;20053;-72
2022/08/08 08:31:24;;;;;;;4.80;0.73;;;23.50;97.90;;;;;;5065094;28;20380;-76
2022/08/08 08:33:50;;;;;;;4.95;0.80;;;23.90;96.90;;;;;;5059148;28;20083;-72
2022/08/08 08:36:17;;;;;;;6.10;0.75;;;24.20;94.30;;;;;;5018828;28;20108;-73
2022/08/08 08:38:43;;;;;;;4.90;0.70;;;24.20;93.90;;;;;;5020092;28;20124;-72
2022/08/08 08:41:13;;;;;;;3.35;0.80;;;23.90;93.50;;;;;;5000278;28;20583;-71
2022/08/08 08:43:40;;;;;;;4.65;0.80;;;23.50;93.70;;;;;;5022141;28;20069;-72
2022/08/08 08:46:10;;;;;;;4.30;0.93;;;23.00;93.30;;;;;;5018381;28;20053;-74
2022/08/08 08:48:36;;;;;;;5.80;1.02;;;22.60;93.70;;;;;;5007837;28;20113;-71
2022/08/08 08:51:03;;;;;;;5.45;0.88;;;22.30;95.00;;;;;;5004886;28;20046;-71
2022/08/08 08:53:40;;;;;;;5.13;1.00;;;22.10;94.90;;;;;;5002269;28;20165;-71
2022/08/08 08:56:08;;;;;;;6.53;0.88;;;21.90;95.10;;;;;;5002367;28;20128;-71
2022/08/08 08:58:42;;;;;;;6.45;0.80;;;21.70;96.10;;;;;;5007865;28;20041;-71
2022/08/08 09:01:11;;;;;;;4.68;0.90;;;21.70;95.90;;;;;;5006179;28;20058;-72
2022/08/08 09:03:43;;;;;;;3.08;0.50;;;21.60;96.60;;;;;;5001227;28;20783;-71
2022/08/08 09:06:10;;;;;;;4.10;0.73;;;21.60;97.10;;;;;;5006313;28;20145;-72
2022/08/08 09:08:42;;;;;;;3.45;0.70;;;22.30;97.10;;;;;;5056921;28;20036;-73
2022/08/08 09:11:08;;;;;;;3.58;0.52;;;23.10;93.30;;;;;;5060117;28;20548;-72
2022/08/08 09:13:38;;;;;;;3.25;0.80;;;23.70;93.00;;;;;;5063633;28;20041;-71
2022/08/08 09:16:04;;;;;;;2.85;0.57;;;24.40;91.10;;;;;;5044616;28;20044;-71
2022/08/08 09:18:30;;;;;;;4.13;0.57;;;25.00;88.80;;;;;;5062103;28;20499;-70
2022/08/08 09:20:57;;;;;;;3.50;0.70;;;25.30;86.80;;;;;;5060361;28;20063;-70
2022/08/08 09:23:24;;;;;;;4.30;0.70;;;25.60;82.90;;;;;;5064378;28;20041;-69
2022/08/08 09:26:06;;;;;;;3.75;0.60;;;25.70;77.40;;;;;;5057781;28;20474;-69
2022/08/08 09:28:37;;;;;;;3.50;1.27;;;25.80;76.10;;;;;;5066574;28;20086;-70
2022/08/08 09:31:11;;;;;;;2.78;0.47;;;25.80;74.90;;;;;;5058623;28;20041;-70
2022/08/08 09:33:38;;;;;;;;;;;25.50;74.40;;;;;;5042153;28;20459;-71
2022/08/08 09:36:05;;;;;;;3.25;0.57;;;25.30;74.50;;;;;;5063223;28;19923;-71
2022/08/08 09:38:46;;;;;;;4.18;0.65;;;24.90;75.00;;;;;;5064115;28;20040;-71
2022/08/08 09:41:16;;;;;;;3.20;0.60;;;24.60;75.00;;;;;;5061487;28;20860;-71
2022/08/08 09:43:48;;;;;;;1.67;0.40;;;24.40;76.60;;;;;;5061051;28;20373;-71
2022/08/08 09:46:16;;;;;;;2.17;0.47;;;24.20;75.50;;;;;;5065437;28;20036;-70
2022/08/08 09:48:44;;;;;;;2.45;0.50;;;24.00;77.20;;;;;;5056304;28;20045;-70
2022/08/08 09:51:14;;;;;;;2.25;0.40;;;24.20;77.70;;;;;;5054913;28;20078;-69
2022/08/08 09:53:47;;;;;;;3.63;0.50;;;24.70;76.70;;;;;;5064261;28;20144;-69
2022/08/08 09:56:14;;;;;;;2.22;0.45;;;25.00;76.10;;;;;;5056537;28;20495;-71
2022/08/08 09:58:53;;;;;;;2.67;0.38;;;25.40;75.80;;;;;;5075980;28;20052;-70
2022/08/08 10:01:21;;;;;;;2.30;0.35;;;25.80;74.80;;;;;;5066045;28;20041;-70
2022/08/08 10:03:49;;;;;;;2.75;0.40;;;25.90;71.70;;;;;;5061606;28;20037;-70
2022/08/08 10:06:17;;;;;;;4.85;0.50;;;25.90;69.60;;;;;;5064335;28;20043;-71
2022/08/08 10:08:47;;;;;;;2.72;0.40;;;25.80;69.00;;;;;;5056926;28;20079;-71
2022/08/08 10:11:20;;;;;;;1.95;0.30;;;25.90;67.70;;;;;;5066768;28;20108;-71
2022/08/08 10:14:02;;;;;;;2.47;0.40;;;25.90;67.90;;;;;;5061565;28;20079;-71
2022/08/08 10:16:41;;;;;;;2.20;0.40;;;25.80;63.40;;;;;;5062798;28;20388;-70
2022/08/08 10:19:10;;;;;;;2.38;0.40;;;25.80;63.90;;;;;;5055859;28;20144;-70
2022/08/08 10:21:37;;;;;;;2.65;0.45;;;26.00;65.00;;;;;;5055635;28;20052;-71
2022/08/08 10:24:08;;;;;;;2.92;0.50;;;26.30;65.80;;;;;;5061419;28;20098;-71
2022/08/08 10:26:52;;;;;;;3.22;0.20;;;26.30;65.00;;;;;;5066417;28;20041;-70
2022/08/08 10:29:32;;;;;;;1.17;0.10;;;26.60;59.50;;;;;;5058964;28;20044;-70
2022/08/08 10:34:51;;;;;;;3.10;0.47;;;27.20;58.40;;;;;;5063306;28;20051;-71
2022/08/08 10:37:26;;;;;;;1.60;0.20;;;27.00;58.00;;;;;;5065722;28;20094;-70
2022/08/08 10:39:54;;;;;;;0.93;0.20;;;26.50;56.60;;;;;;5054283;28;20115;-71
2022/08/08 10:42:22;;;;;;;2.92;0.25;;;26.10;57.80;;;;;;5060304;28;20113;-72
2022/08/08 10:44:48;;;;;;;1.58;0.40;;;25.90;58.00;;;;;;5049551;28;20810;-72
2022/08/08 10:47:15;;;;;;;2.22;0.20;;;25.60;58.90;;;;;;5060732;28;20040;-71
2022/08/08 10:49:48;;;;;;;1.20;0.28;;;25.40;60.90;;;;;;5061541;28;20055;-72
2022/08/08 10:52:24;;;;;;;1.20;0.22;;;25.40;60.10;;;;;;5058454;28;20401;-71
2022/08/08 10:54:58;;;;;;;1.42;0.20;;;25.20;59.20;;;;;;5060624;28;20063;-71
2022/08/08 10:57:24;;;;;;;0.63;0.20;;;25.00;60.40;;;;;;5064674;28;20048;-71
2022/08/08 10:59:55;;;;;;;1.50;0.50;;;24.80;60.90;;;;;;5063682;28;20045;-71
2022/08/08 11:02:29;;;;;;;1.00;0.20;;;24.90;61.30;;;;;;5057546;28;20032;-71
2022/08/08 11:05:00;;;;;;;1.00;0.15;;;24.90;62.20;;;;;;5056602;28;20053;-71
2022/08/08 11:07:30;;;;;;;2.97;0.40;;;24.90;62.80;;;;;;5057922;28;20055;-71
2022/08/08 11:10:09;;;;;;;1.67;0.30;;;24.70;63.30;;;;;;5065131;28;20071;-71
2022/08/08 11:12:48;;;;;;;2.42;0.32;;;24.70;64.00;;;;;;5064050;28;20111;-71
2022/08/08 11:15:16;;;;;;;2.47;0.25;;;24.60;64.70;;;;;;5048452;28;20481;-71
2022/08/08 11:17:43;;;;;;;3.15;0.60;;;24.40;65.00;;;;;;5048327;28;20053;-71
2022/08/08 11:20:11;;;;;;;1.73;0.22;;;24.40;66.00;;;;;;5067045;28;20037;-71
2022/08/08 11:22:37;;;;;;;0.80;0.20;;;24.40;65.10;;;;;;5063639;28;20045;-71
2022/08/08 11:25:10;;;;;;;1.75;0.40;;;24.50;65.10;;;;;;5058243;28;20432;-71
2022/08/08 11:27:37;;;;;;;2.42;0.30;;;24.60;65.60;;;;;;5056744;28;20037;-71
2022/08/08 11:30:06;;;;;;;1.42;0.20;;;24.60;66.10;;;;;;5062548;28;20048;-71
2022/08/08 11:32:36;;;;;;;2.60;0.38;;;24.60;65.80;;;;;;5064565;28;20044;-72
2022/08/08 11:35:04;;;;;;;2.53;0.50;;;24.70;66.50;;;;;;5061532;28;20075;-72
2022/08/08 11:37:31;;;;;;;0.77;0.30;;;24.70;66.40;;;;;;5062983;28;20044;-72
2022/08/08 11:39:59;;;;;;;2.33;0.40;;;24.70;66.30;;;;;;5054662;28;20040;-71
2022/08/08 11:42:25;;;;;;;1.40;0.35;;;24.70;66.40;;;;;;5064334;28;20041;-72
2022/08/08 11:44:54;;;;;;;1.58;0.32;;;24.50;67.00;;;;;;5068321;28;20098;-70
2022/08/08 11:47:22;;;;;;;4.30;0.30;;;24.40;67.60;;;;;;5062664;28;20106;-70
2022/08/08 11:49:53;;;;;;;2.63;0.50;;;24.40;66.70;;;;;;5068133;28;20447;-71
2022/08/08 11:52:19;;;;;;;1.75;0.30;;;24.30;65.80;;;;;;5036077;28;20164;-70
2022/08/08 11:54:45;;;;;;;3.30;0.52;;;24.20;66.00;;;;;;5049990;28;20048;-71
2022/08/08 11:57:17;;;;;;;1.50;0.30;;;24.10;68.50;;;;;;5058142;28;20047;-72
2022/08/08 11:59:53;;;;;;;1.38;0.30;;;24.10;67.60;;;;;;5046307;28;20076;-72
2022/08/08 12:02:21;;;;;;;0.80;0.20;;;24.10;67.10;;;;;;5067324;28;20366;-72
2022/08/08 12:04:47;;;;;;;0.90;0.20;;;23.90;67.30;;;;;;5063150;28;20357;-72
2022/08/08 12:07:12;;;;;;;2.50;0.52;;;24.00;68.00;;;;;;5061663;28;20067;-71
2022/08/08 12:09:38;;;;;;;2.97;0.30;;;23.90;66.50;;;;;;5063923;28;20049;-71
2022/08/08 12:12:04;;;;;;;2.17;0.43;;;24.00;67.10;;;;;;5060677;28;20114;-71
2022/08/08 12:14:31;;;;;;;2.58;0.40;;;23.90;67.10;;;;;;5041895;28;20038;-71
2022/08/08 12:16:58;;;;;;;3.55;0.60;;;23.90;67.80;;;;;;5057291;28;20392;-71
2022/08/08 12:19:27;;;;;;;1.08;0.30;;;23.80;68.00;;;;;;5044516;28;20111;-71
2022/08/08 12:22:05;;;;;;;2.65;0.40;;;23.80;70.70;;;;;;5057486;28;20120;-72
2022/08/08 12:24:41;;;;;;;3.42;0.38;;;23.80;72.60;;;;;;5062915;28;20040;-72
2022/08/08 12:27:16;;;;;;;4.30;0.43;;;23.90;72.50;;;;;;5063526;28;20045;-71
2022/08/08 12:29:57;;;;;;;1.35;0.30;;;24.10;72.10;;;;;;5062101;28;20488;-72
2022/08/08 12:32:23;;;;;;;2.17;0.40;;;24.20;73.50;;;;;;5042608;28;20055;-72
2022/08/08 12:34:55;;;;;;;2.65;0.30;;;24.20;72.60;;;;;;5062021;28;20098;-72
2022/08/08 12:37:31;;;;;;;3.28;0.57;;;24.20;72.00;;;;;;5055090;28;20104;-71
2022/08/08 12:40:03;;;;;;;3.05;0.50;;;24.30;71.90;;;;;;5055061;28;20473;-71
2022/08/08 12:42:29;;;;;;;1.75;0.45;;;24.20;73.00;;;;;;5053881;28;20037;-71
2022/08/08 12:45:04;;;;;;;3.53;0.30;;;24.20;72.40;;;;;;5059873;28;20488;-71
2022/08/08 12:47:29;;;;;;;0.95;0.30;;;24.20;72.10;;;;;;5058413;28;20050;-71
2022/08/08 12:49:55;;;;;;;1.58;0.47;;;24.20;71.90;;;;;;5060492;28;20098;-71
2022/08/08 12:52:23;;;;;;;2.20;0.47;;;24.10;71.90;;;;;;5063789;28;20128;-71
2022/08/08 12:55:01;;;;;;;3.60;0.50;;;23.90;71.70;;;;;;5062915;28;20508;-71
2022/08/08 12:57:27;;;;;;;2.75;0.40;;;24.30;73.50;;;;;;5063859;28;20368;-72
2022/08/08 12:59:54;;;;;;;1.60;0.40;;;24.60;71.70;;;;;;5061550;28;20040;-72
2022/08/08 13:02:32;;;;;;;3.53;0.40;;;24.60;71.30;;;;;;5060549;28;20115;-72
2022/08/08 13:05:00;;;;;;;1.45;0.22;;;24.40;70.70;;;;;;5038144;28;20053;-72
2022/08/08 13:07:34;;;;;;;2.95;0.50;;;24.30;72.60;;;;;;5064592;28;20063;-71
2022/08/08 13:10:02;;;;;;;1.77;0.30;;;24.30;71.70;;;;;;5062691;28;20047;-71
2022/08/08 13:12:32;;;;;;;3.90;0.60;;;24.10;72.00;;;;;;5065241;28;20040;-71
2022/08/08 13:15:01;;;;;;;2.65;0.50;;;23.80;72.30;;;;;;5059296;28;20036;-71
2022/08/08 13:17:29;;;;;;;6.38;0.63;;;23.60;72.50;;;;;;5047118;28;20040;-71
2022/08/08 13:19:56;;;;;;;4.32;0.82;;;23.40;73.30;;;;;;5058418;28;20036;-71
2022/08/08 13:22:23;;;;;;;2.75;0.60;;;23.30;74.10;;;;;;5057764;28;20040;-71
2022/08/08 13:24:49;;;;;;;2.72;0.40;;;23.30;74.50;;;;;;5041393;28;20462;-71
2022/08/08 13:27:18;;;;;;;2.95;0.43;;;23.20;74.60;;;;;;5055983;28;20063;-71